Time;durP1;ratioP1;P1;durP2;ratioP2;P2;SDS_P1;SDS_P2;PMS_P1;PMS_P2;Temp;Humidity;BMP_temperature;BMP_pressure;BME280_temperature;BME280_humidity;BME280_pressure;Samples;Min_cycle;Max_cycle;Signal;HPM_P1;HPM_P2
2022/09/12 00:00:38;;;;;;;2.10;1.20;;;11.90;99.90;;;;;;5028081;28;20690;-74
2022/09/12 00:03:03;;;;;;;1.92;1.20;;;11.90;99.90;;;;;;5025382;28;20117;-74
2022/09/12 00:05:29;;;;;;;1.60;1.08;;;11.90;99.90;;;;;;5027459;28;20030;-75
2022/09/12 00:07:55;;;;;;;1.20;0.82;;;11.80;99.90;;;;;;5022225;28;20097;-74
2022/09/12 00:10:20;;;;;;;1.50;1.15;;;11.70;99.90;;;;;;5020996;28;20108;-74
2022/09/12 00:12:46;;;;;;;1.17;0.90;;;11.70;99.90;;;;;;5022420;28;20034;-77
2022/09/12 00:15:11;;;;;;;1.00;0.93;;;11.70;99.90;;;;;;5014364;28;20041;-76
2022/09/12 00:17:37;;;;;;;0.95;0.80;;;11.60;99.90;;;;;;5017249;28;20084;-76
2022/09/12 00:20:08;;;;;;;2.15;1.35;;;11.60;99.90;;;;;;5016579;28;20026;-76
2022/09/12 00:22:34;;;;;;;1.17;1.02;;;11.60;99.90;;;;;;5023269;28;20033;-76
2022/09/12 00:25:00;;;;;;;1.30;1.10;;;11.50;99.90;;;;;;5018434;28;20022;-76
2022/09/12 00:27:35;;;;;;;1.65;0.95;;;11.50;99.90;;;;;;5024970;28;20072;-76
2022/09/12 00:30:00;;;;;;;1.40;1.10;;;11.50;99.90;;;;;;5022526;28;20037;-75
2022/09/12 00:32:26;;;;;;;1.17;1.05;;;11.50;99.90;;;;;;5020423;28;20030;-76
2022/09/12 00:34:51;;;;;;;1.15;1.05;;;11.40;99.90;;;;;;5012736;28;20420;-76
2022/09/12 00:37:17;;;;;;;2.15;1.92;;;11.40;99.90;;;;;;5018006;28;20036;-76
2022/09/12 00:39:42;;;;;;;1.17;1.00;;;11.40;99.90;;;;;;5022547;28;20033;-76
2022/09/12 00:42:09;;;;;;;0.98;0.98;;;11.40;99.90;;;;;;5020657;28;20030;-76
2022/09/12 00:44:34;;;;;;;1.20;1.10;;;11.40;99.90;;;;;;5019359;28;20084;-76
2022/09/12 00:47:13;;;;;;;1.45;1.10;;;11.30;99.90;;;;;;5021172;28;20022;-76
2022/09/12 00:49:57;;;;;;;2.20;1.00;;;11.30;99.90;;;;;;5022317;28;20496;-76
2022/09/12 00:52:29;;;;;;;0.85;0.85;;;11.20;99.90;;;;;;5016984;28;20029;-76
2022/09/12 00:55:09;;;;;;;1.20;1.10;;;11.20;99.90;;;;;;5028905;28;20053;-75
2022/09/12 00:57:42;;;;;;;0.70;0.70;;;11.20;99.90;;;;;;5019766;28;20037;-76
2022/09/12 01:00:14;;;;;;;0.98;0.82;;;11.20;99.90;;;;;;5047125;28;20029;-76
2022/09/12 01:02:42;;;;;;;0.75;0.73;;;11.00;99.90;;;;;;5021090;28;20037;-76
2022/09/12 01:05:09;;;;;;;0.80;0.80;;;11.00;99.90;;;;;;5025483;28;20034;-76
2022/09/12 01:07:36;;;;;;;0.77;0.75;;;11.00;99.90;;;;;;5025577;28;20057;-76
2022/09/12 01:10:03;;;;;;;0.95;0.82;;;11.10;99.90;;;;;;5029053;28;20447;-76
2022/09/12 01:12:30;;;;;;;1.10;0.85;;;11.10;99.90;;;;;;5023517;28;20033;-76
2022/09/12 01:14:55;;;;;;;0.70;0.70;;;11.00;99.90;;;;;;5021282;28;20087;-76
2022/09/12 01:17:23;;;;;;;1.00;0.90;;;10.90;99.90;;;;;;5016512;28;20038;-76
2022/09/12 01:20:25;;;;;;;1.05;0.90;;;10.90;99.90;;;;;;5028721;28;20046;-76
2022/09/12 01:23:35;;;;;;;0.60;0.60;;;10.90;99.90;;;;;;5015683;28;20029;-76
2022/09/12 01:26:30;;;;;;;1.10;1.00;;;10.90;99.90;;;;;;5019492;28;20029;-76
2022/09/12 01:29:39;;;;;;;1.10;1.00;;;11.00;99.90;;;;;;5027922;28;20026;-76
2022/09/12 01:32:37;;;;;;;1.15;0.85;;;10.90;99.90;;;;;;5018316;28;20026;-76
2022/09/12 01:35:36;;;;;;;1.05;0.82;;;10.90;99.90;;;;;;5013809;28;20109;-76
2022/09/12 01:38:04;;;;;;;0.73;0.60;;;10.80;99.90;;;;;;5021425;28;20037;-77
2022/09/12 01:40:39;;;;;;;1.00;0.82;;;10.80;99.90;;;;;;5025572;28;20029;-77
2022/09/12 01:43:20;;;;;;;1.23;1.00;;;10.80;99.90;;;;;;5026517;28;20026;-77
2022/09/12 01:45:57;;;;;;;1.20;1.10;;;10.70;99.90;;;;;;5017293;28;20026;-76
2022/09/12 01:48:31;;;;;;;1.50;1.15;;;10.70;99.90;;;;;;5023055;28;20025;-76
2022/09/12 01:51:10;;;;;;;2.35;0.80;;;10.80;99.90;;;;;;5021425;28;20050;-76
2022/09/12 01:53:41;;;;;;;1.27;0.95;;;10.70;99.90;;;;;;5024770;28;20038;-76
2022/09/12 01:56:14;;;;;;;1.27;1.00;;;10.70;99.90;;;;;;5011834;28;20040;-76
2022/09/12 01:58:52;;;;;;;1.23;0.90;;;10.70;99.90;;;;;;5017255;28;20120;-76
2022/09/12 02:01:29;;;;;;;0.93;0.82;;;10.60;99.90;;;;;;5023947;28;20045;-76
2022/09/12 02:04:18;;;;;;;1.23;1.00;;;10.60;99.90;;;;;;5014321;28;20037;-76
2022/09/12 02:07:17;;;;;;;0.98;0.95;;;10.60;99.90;;;;;;5017332;28;20021;-76
2022/09/12 02:09:49;;;;;;;1.02;0.90;;;10.50;99.90;;;;;;5009825;28;20052;-76
2022/09/12 02:12:20;;;;;;;1.60;1.23;;;10.40;99.90;;;;;;5008515;28;20477;-76
2022/09/12 02:14:50;;;;;;;2.50;1.80;;;10.40;99.90;;;;;;5019789;28;20068;-76
2022/09/12 02:17:20;;;;;;;1.80;1.38;;;10.50;99.90;;;;;;5021225;28;20033;-76
2022/09/12 02:19:50;;;;;;;0.90;0.80;;;10.40;99.90;;;;;;5014775;28;20112;-77
2022/09/12 02:22:19;;;;;;;1.17;0.98;;;10.40;99.90;;;;;;5014691;28;20112;-76
2022/09/12 02:24:48;;;;;;;1.15;1.00;;;10.40;99.90;;;;;;5020094;28;20029;-76
2022/09/12 02:27:19;;;;;;;0.93;0.93;;;10.40;99.90;;;;;;5016119;28;20029;-76
2022/09/12 02:29:45;;;;;;;1.33;0.90;;;10.40;99.90;;;;;;5025354;28;20029;-76
2022/09/12 02:32:31;;;;;;;1.08;1.00;;;10.30;99.90;;;;;;5015892;28;20038;-76
2022/09/12 02:35:21;;;;;;;0.98;0.90;;;10.40;99.90;;;;;;5007735;28;20033;-76
2022/09/12 02:38:08;;;;;;;6.68;1.00;;;10.40;99.90;;;;;;5016595;28;20040;-76
2022/09/12 02:40:34;;;;;;;2.38;0.80;;;10.30;99.90;;;;;;5017967;28;20036;-77
2022/09/12 02:43:03;;;;;;;1.42;1.00;;;10.30;99.90;;;;;;5025585;28;20030;-76
2022/09/12 02:45:30;;;;;;;1.00;0.90;;;10.30;99.90;;;;;;5015664;28;20021;-76
2022/09/12 02:48:08;;;;;;;1.20;1.10;;;10.30;99.90;;;;;;5019867;28;20073;-76
2022/09/12 02:50:34;;;;;;;1.38;0.90;;;10.30;99.90;;;;;;5020447;28;20561;-76
2022/09/12 02:53:03;;;;;;;0.80;0.80;;;10.30;99.90;;;;;;5008868;28;20037;-76
2022/09/12 02:55:34;;;;;;;1.13;1.00;;;10.30;99.90;;;;;;5016760;28;20561;-76
2022/09/12 02:58:03;;;;;;;0.88;0.80;;;10.30;99.90;;;;;;5014067;28;20079;-76
2022/09/12 03:00:33;;;;;;;1.80;1.17;;;10.20;99.90;;;;;;5020910;28;20073;-76
2022/09/12 03:03:30;;;;;;;1.42;1.10;;;10.30;99.90;;;;;;5012044;28;20033;-77
2022/09/12 03:06:03;;;;;;;1.38;1.00;;;10.20;99.90;;;;;;5024839;28;20030;-76
2022/09/12 03:08:57;;;;;;;1.20;1.10;;;10.20;99.90;;;;;;5023439;28;20029;-77
2022/09/12 03:11:43;;;;;;;0.93;0.93;;;10.20;99.90;;;;;;5019343;28;20496;-76
2022/09/12 03:14:35;;;;;;;1.35;1.10;;;10.20;99.90;;;;;;5010003;28;20038;-76
2022/09/12 03:17:21;;;;;;;5.53;1.10;;;10.20;99.90;;;;;;5023368;28;20028;-76
2022/09/12 03:19:54;;;;;;;1.45;1.10;;;10.20;99.90;;;;;;5019902;28;20026;-76
2022/09/12 03:22:44;;;;;;;1.17;1.08;;;10.10;99.90;;;;;;5012247;28;20492;-76
2022/09/12 03:25:17;;;;;;;1.52;1.13;;;10.10;99.90;;;;;;5027644;28;20034;-76
2022/09/12 03:28:06;;;;;;;1.50;1.10;;;10.00;99.90;;;;;;5021996;28;20034;-76
2022/09/12 03:30:40;;;;;;;1.48;1.10;;;10.00;99.90;;;;;;5012738;28;20109;-75
2022/09/12 03:33:09;;;;;;;2.22;1.27;;;10.00;99.90;;;;;;5010971;28;20109;-73
2022/09/12 03:35:35;;;;;;;1.70;1.23;;;10.00;99.90;;;;;;5015449;28;20042;-76
2022/09/12 03:38:00;;;;;;;2.65;1.90;;;9.90;99.90;;;;;;5023084;28;20130;-76
2022/09/12 03:40:26;;;;;;;4.68;1.38;;;9.90;99.90;;;;;;5033160;28;20626;-76
2022/09/12 03:42:51;;;;;;;2.13;1.38;;;9.90;99.90;;;;;;5020972;28;20037;-76
2022/09/12 03:45:17;;;;;;;2.10;1.33;;;10.00;99.90;;;;;;5034967;28;20048;-76
2022/09/12 03:47:42;;;;;;;1.83;1.45;;;10.00;99.90;;;;;;5021950;28;20105;-75
2022/09/12 03:50:08;;;;;;;2.05;1.33;;;10.00;99.90;;;;;;5025641;28;20060;-76
2022/09/12 03:52:34;;;;;;;2.40;1.20;;;10.00;99.90;;;;;;5013031;28;20026;-77
2022/09/12 03:54:59;;;;;;;1.73;1.45;;;10.00;99.90;;;;;;5019377;28;20034;-76
2022/09/12 03:57:25;;;;;;;2.33;1.55;;;10.00;99.90;;;;;;5007540;28;20468;-75
2022/09/12 03:59:50;;;;;;;1.85;1.35;;;10.00;99.90;;;;;;5014292;28;20038;-78
2022/09/12 04:02:16;;;;;;;1.98;1.38;;;10.00;99.90;;;;;;5012013;28;20026;-77
2022/09/12 04:04:43;;;;;;;2.65;1.35;;;9.90;99.90;;;;;;5014630;28;20026;-78
2022/09/12 04:07:10;;;;;;;1.70;1.45;;;9.90;99.90;;;;;;5022460;28;20029;-76
2022/09/12 04:09:35;;;;;;;1.30;1.20;;;9.90;99.90;;;;;;5022075;28;20026;-74
2022/09/12 04:12:01;;;;;;;2.97;1.63;;;9.90;99.90;;;;;;5013890;28;20083;-77
2022/09/12 04:14:26;;;;;;;1.77;1.27;;;10.00;99.90;;;;;;5017674;28;20543;-78
2022/09/12 04:16:52;;;;;;;3.10;1.52;;;10.00;99.90;;;;;;5017793;28;20052;-77
2022/09/12 04:19:20;;;;;;;2.35;1.48;;;10.00;99.90;;;;;;5018247;28;20764;-79
2022/09/12 04:21:45;;;;;;;3.47;1.48;;;10.00;99.90;;;;;;5018146;28;20046;-78
2022/09/12 04:24:11;;;;;;;2.00;1.40;;;10.00;99.90;;;;;;5021221;28;20033;-80
2022/09/12 04:26:36;;;;;;;1.92;1.15;;;9.90;99.90;;;;;;5015619;28;20115;-76
2022/09/12 04:29:02;;;;;;;2.20;1.50;;;9.90;99.90;;;;;;5018167;28;20028;-78
2022/09/12 04:31:27;;;;;;;2.15;1.52;;;9.80;99.90;;;;;;5015839;28;20025;-81
2022/09/12 04:33:58;;;;;;;1.98;1.27;;;9.80;99.90;;;;;;5021597;28;20021;-82
2022/09/12 04:36:24;;;;;;;2.97;1.50;;;9.80;99.90;;;;;;5012222;28;20069;-79
2022/09/12 04:38:51;;;;;;;2.88;1.63;;;9.70;99.90;;;;;;5025078;28;20102;-81
2022/09/12 04:41:19;;;;;;;2.50;1.75;;;9.70;99.90;;;;;;5016427;28;20109;-76
2022/09/12 04:43:46;;;;;;;1.25;1.10;;;9.60;99.90;;;;;;5019366;28;20034;-77
2022/09/12 04:46:14;;;;;;;1.95;1.63;;;9.60;99.90;;;;;;5012708;28;20018;-75
2022/09/12 04:48:39;;;;;;;3.33;1.70;;;9.80;99.90;;;;;;5016632;28;20029;-76
2022/09/12 04:51:10;;;;;;;2.25;1.20;;;9.70;99.90;;;;;;5015136;28;20077;-75
2022/09/12 04:53:36;;;;;;;3.58;1.35;;;9.80;99.90;;;;;;5025441;28;20515;-76
2022/09/12 04:56:04;;;;;;;3.70;1.55;;;9.90;99.90;;;;;;5014391;28;20113;-76
2022/09/12 04:58:32;;;;;;;3.47;1.55;;;9.90;99.90;;;;;;5027338;28;20026;-77
2022/09/12 05:01:11;;;;;;;2.38;1.50;;;10.00;99.90;;;;;;5021674;28;20079;-76
2022/09/12 05:03:38;;;;;;;2.88;1.67;;;10.00;99.90;;;;;;5017351;28;20147;-77
2022/09/12 05:06:06;;;;;;;1.52;1.27;;;10.00;99.90;;;;;;5011774;28;20034;-77
2022/09/12 05:08:34;;;;;;;2.83;1.48;;;10.10;99.90;;;;;;5028013;28;20026;-77
2022/09/12 05:11:05;;;;;;;3.67;1.77;;;10.10;99.90;;;;;;5021108;28;20116;-77
2022/09/12 05:13:31;;;;;;;;;;;10.00;99.90;;;;;;5016492;28;20026;-77
2022/09/12 05:15:59;;;;;;;2.67;1.63;;;10.10;99.90;;;;;;5023029;28;19905;-82
2022/09/12 05:18:25;;;;;;;3.10;2.15;;;10.10;99.90;;;;;;5014764;28;20033;-82
2022/09/12 05:20:51;;;;;;;3.40;1.40;;;10.20;99.90;;;;;;5025481;28;20041;-82
2022/09/12 05:23:17;;;;;;;1.30;1.20;;;10.30;99.90;;;;;;5024003;28;20135;-83
2022/09/12 05:25:53;;;;;;;2.72;1.70;;;10.30;99.90;;;;;;5020292;28;20026;-82
2022/09/12 05:28:19;;;;;;;2.15;1.77;;;10.30;99.90;;;;;;5025556;28;20021;-82
2022/09/12 05:30:45;;;;;;;2.83;1.77;;;10.40;99.90;;;;;;5023515;28;20064;-82
2022/09/12 05:33:12;;;;;;;1.92;1.70;;;10.40;99.90;;;;;;5027614;28;20037;-82
2022/09/12 05:35:37;;;;;;;1.48;1.38;;;10.30;99.90;;;;;;5023538;28;20022;-82
2022/09/12 05:38:05;;;;;;;2.05;1.50;;;10.40;99.90;;;;;;5024625;28;20038;-82
2022/09/12 05:40:31;;;;;;;1.95;1.50;;;10.50;99.90;;;;;;5022287;28;20067;-82
2022/09/12 05:42:56;;;;;;;3.33;1.63;;;10.50;99.90;;;;;;5024523;28;20593;-82
2022/09/12 05:45:22;;;;;;;3.15;1.88;;;10.60;99.90;;;;;;5026868;28;20029;-81
2022/09/12 05:47:47;;;;;;;6.65;2.03;;;10.70;99.90;;;;;;5025605;28;20048;-83
2022/09/12 05:50:13;;;;;;;3.20;1.88;;;10.80;99.90;;;;;;5027014;28;20607;-82
2022/09/12 05:52:38;;;;;;;2.33;1.73;;;10.90;99.90;;;;;;5024293;28;20037;-83
2022/09/12 05:55:04;;;;;;;1.80;1.70;;;11.10;99.90;;;;;;5025502;28;20025;-82
2022/09/12 05:57:30;;;;;;;2.03;1.58;;;11.20;99.90;;;;;;5023640;28;20038;-82
2022/09/12 05:59:55;;;;;;;5.32;2.00;;;11.20;99.90;;;;;;5021139;28;20029;-83
2022/09/12 06:02:21;;;;;;;3.58;2.00;;;11.20;99.90;;;;;;5022720;28;20783;-81
2022/09/12 06:04:46;;;;;;;4.13;2.42;;;11.40;99.90;;;;;;5019178;28;20401;-82
2022/09/12 06:07:13;;;;;;;2.58;1.60;;;11.60;99.90;;;;;;5022360;28;20025;-78
2022/09/12 06:09:39;;;;;;;4.40;1.60;;;11.50;99.90;;;;;;5023370;28;20480;-81
2022/09/12 06:12:05;;;;;;;2.28;1.75;;;11.60;99.90;;;;;;5019471;28;20044;-81
2022/09/12 06:14:31;;;;;;;4.78;2.20;;;11.70;99.90;;;;;;5023613;28;20029;-81
2022/09/12 06:16:57;;;;;;;3.53;2.10;;;11.80;99.90;;;;;;5024098;28;20053;-81
2022/09/12 06:19:23;;;;;;;2.72;2.05;;;11.90;99.90;;;;;;5022357;28;20150;-81
2022/09/12 06:21:52;;;;;;;5.85;2.60;;;11.90;99.90;;;;;;5022278;28;20025;-81
2022/09/12 06:24:20;;;;;;;3.17;2.30;;;11.90;99.90;;;;;;5019728;28;20112;-81
2022/09/12 06:26:47;;;;;;;2.72;1.88;;;12.00;99.90;;;;;;5021326;28;20025;-80
2022/09/12 06:29:13;;;;;;;3.45;2.22;;;12.20;99.90;;;;;;5022858;28;20076;-81
2022/09/12 06:31:41;;;;;;;3.65;1.80;;;12.20;99.90;;;;;;5023921;28;20474;-81
2022/09/12 06:34:09;;;;;;;3.60;2.40;;;12.40;99.90;;;;;;5020485;28;20041;-81
2022/09/12 06:36:40;;;;;;;6.50;2.42;;;12.50;99.90;;;;;;5022002;28;20121;-81
2022/09/12 06:39:11;;;;;;;4.93;2.67;;;12.60;99.90;;;;;;5022614;28;20547;-79
2022/09/12 06:41:37;;;;;;;4.97;3.15;;;12.60;99.90;;;;;;5013640;28;20049;-81
2022/09/12 06:44:02;;;;;;;4.57;2.88;;;12.80;99.90;;;;;;5022119;28;20037;-81
2022/09/12 06:46:29;;;;;;;4.68;2.42;;;12.90;99.90;;;;;;5020291;28;20073;-81
2022/09/12 06:48:56;;;;;;;3.30;2.25;;;12.90;99.90;;;;;;5020826;28;20832;-82
2022/09/12 06:51:22;;;;;;;3.03;2.35;;;12.90;99.90;;;;;;5017480;28;20154;-83
2022/09/12 06:53:49;;;;;;;6.43;2.85;;;13.10;99.90;;;;;;5019433;28;20053;-83
2022/09/12 06:56:18;;;;;;;4.88;2.63;;;13.10;99.90;;;;;;5024850;28;20033;-83
2022/09/12 06:58:44;;;;;;;4.72;2.28;;;13.10;99.90;;;;;;5022645;28;20072;-83
2022/09/12 07:01:17;;;;;;;3.90;2.08;;;13.20;99.90;;;;;;5022035;28;20029;-83
2022/09/12 07:03:47;;;;;;;3.38;1.83;;;13.30;99.90;;;;;;5024550;28;20025;-83
2022/09/12 07:06:15;;;;;;;3.25;1.83;;;13.40;99.90;;;;;;5024510;28;20021;-84
2022/09/12 07:08:41;;;;;;;3.17;2.05;;;13.50;99.90;;;;;;5025706;28;20030;-83
2022/09/12 07:11:24;;;;;;;3.65;2.55;;;13.50;99.90;;;;;;5023716;28;20427;-83
2022/09/12 07:13:52;;;;;;;3.10;1.85;;;13.50;99.90;;;;;;5023461;28;20108;-82
2022/09/12 07:16:18;;;;;;;3.08;2.03;;;13.60;99.90;;;;;;5021285;28;21245;-83
2022/09/12 07:18:54;;;;;;;3.80;2.42;;;13.60;99.90;;;;;;5023490;28;20036;-83
2022/09/12 07:21:20;;;;;;;5.10;2.15;;;13.60;99.90;;;;;;5025931;28;20057;-82
2022/09/12 07:23:46;;;;;;;3.72;2.08;;;13.80;99.90;;;;;;5026846;28;20126;-82
2022/09/12 07:26:37;;;;;;;5.35;2.25;;;13.90;99.90;;;;;;5024759;28;20033;-83
2022/09/12 07:29:03;;;;;;;4.37;2.20;;;14.00;99.90;;;;;;5020904;28;20024;-83
2022/09/12 07:31:29;;;;;;;6.95;2.53;;;14.10;99.90;;;;;;5025207;28;20087;-82
2022/09/12 07:33:55;;;;;;;3.55;2.20;;;14.20;99.90;;;;;;5021687;28;20021;-81
2022/09/12 07:36:22;;;;;;;2.58;1.90;;;14.40;99.90;;;;;;5022181;28;20032;-82
2022/09/12 07:38:53;;;;;;;3.25;2.05;;;14.50;99.90;;;;;;5024347;28;20029;-84
2022/09/12 07:41:20;;;;;;;3.65;2.40;;;14.50;99.90;;;;;;5024834;28;20036;-81
2022/09/12 07:43:47;;;;;;;3.45;2.13;;;14.70;99.90;;;;;;5024684;28;20025;-82
2022/09/12 07:46:13;;;;;;;2.92;1.90;;;14.70;99.90;;;;;;5028027;28;20037;-81
2022/09/12 07:48:39;;;;;;;2.53;2.13;;;14.80;99.90;;;;;;5026512;28;20152;-82
2022/09/12 07:51:08;;;;;;;3.53;2.17;;;15.00;99.90;;;;;;5026165;28;20578;-81
2022/09/12 07:53:46;;;;;;;2.97;2.17;;;15.20;99.90;;;;;;5028957;28;20021;-81
2022/09/12 07:56:12;;;;;;;3.72;2.08;;;15.20;99.90;;;;;;5029071;28;20160;-81
2022/09/12 07:58:39;;;;;;;7.82;3.03;;;15.40;99.90;;;;;;5024261;28;20452;-81
2022/09/12 08:01:14;;;;;;;3.75;2.55;;;15.50;99.90;;;;;;5028044;28;20025;-79
2022/09/12 08:03:41;;;;;;;2.83;1.95;;;15.70;99.90;;;;;;5027044;28;20036;-79
2022/09/12 08:06:08;;;;;;;2.13;1.80;;;15.90;99.90;;;;;;5028245;28;20117;-80
2022/09/12 08:08:34;;;;;;;2.58;2.00;;;16.00;99.90;;;;;;5024982;28;20777;-79
2022/09/12 08:11:02;;;;;;;2.75;1.77;;;16.10;99.90;;;;;;5024256;28;20099;-79
2022/09/12 08:13:29;;;;;;;3.15;1.98;;;16.20;99.90;;;;;;5028291;28;20030;-79
2022/09/12 08:15:59;;;;;;;3.97;2.10;;;16.40;99.90;;;;;;5028511;28;20034;-80
2022/09/12 08:18:29;;;;;;;4.25;2.08;;;16.50;99.90;;;;;;5024263;28;20114;-80
2022/09/12 08:20:59;;;;;;;6.22;2.30;;;16.50;99.90;;;;;;5023540;28;20330;-80
2022/09/12 08:23:27;;;;;;;3.08;2.15;;;16.70;99.90;;;;;;5017829;28;20049;-78
2022/09/12 08:26:02;;;;;;;1.70;1.20;;;16.60;99.90;;;;;;5024264;28;20056;-78
2022/09/12 08:28:29;;;;;;;1.92;1.33;;;16.70;99.90;;;;;;5019394;28;20030;-77
2022/09/12 08:31:00;;;;;;;3.17;1.73;;;16.80;99.90;;;;;;5024367;28;20023;-78
2022/09/12 08:33:31;;;;;;;43.55;6.65;;;16.70;99.90;;;;;;5021638;28;20033;-77
2022/09/12 08:36:03;;;;;;;1.58;1.38;;;16.60;99.90;;;;;;5026560;28;20033;-77
2022/09/12 08:38:28;;;;;;;3.05;1.30;;;16.90;99.90;;;;;;5025230;28;20068;-78
2022/09/12 08:41:02;;;;;;;2.00;1.38;;;17.10;99.90;;;;;;5023959;28;20112;-76
2022/09/12 08:43:54;;;;;;;2.50;1.33;;;17.30;99.90;;;;;;5023711;28;20068;-76
2022/09/12 08:46:37;;;;;;;3.63;1.65;;;17.50;99.90;;;;;;5023281;28;20017;-77
2022/09/12 08:49:06;;;;;;;1.05;0.95;;;17.70;99.90;;;;;;5026237;28;20096;-77
2022/09/12 08:51:34;;;;;;;1.38;1.08;;;17.90;99.90;;;;;;5027394;28;20052;-76
2022/09/12 08:54:01;;;;;;;1.60;1.00;;;18.10;99.90;;;;;;5024269;28;20037;-77
2022/09/12 08:56:30;;;;;;;1.17;1.00;;;18.10;99.90;;;;;;5025458;28;20104;-77
2022/09/12 08:58:56;;;;;;;2.60;1.52;;;18.10;99.90;;;;;;5023981;28;20030;-76
2022/09/12 09:01:41;;;;;;;0.80;0.80;;;18.00;99.90;;;;;;5024901;28;20036;-76
2022/09/12 09:04:22;;;;;;;0.77;0.70;;;18.10;99.90;;;;;;5026161;28;20387;-76
2022/09/12 09:07:18;;;;;;;0.70;0.70;;;18.30;99.90;;;;;;5020247;28;20025;-76
2022/09/12 09:10:15;;;;;;;0.98;0.88;;;18.30;99.90;;;;;;5026758;28;20456;-76
2022/09/12 09:13:00;;;;;;;0.63;0.60;;;18.10;99.90;;;;;;5030971;28;20071;-76
2022/09/12 09:15:56;;;;;;;1.00;0.95;;;18.30;99.90;;;;;;5022903;28;20037;-73
2022/09/12 09:18:30;;;;;;;1.33;0.90;;;18.50;99.90;;;;;;5023126;28;20036;-79
2022/09/12 09:21:18;;;;;;;1.20;0.90;;;18.50;99.90;;;;;;5018148;28;20033;-76
2022/09/12 09:23:49;;;;;;;0.50;0.50;;;18.50;99.90;;;;;;5024138;28;20060;-77
2022/09/12 09:26:26;;;;;;;;;;;18.60;99.90;;;;;;5021742;28;20029;-76
2022/09/12 09:29:18;;;;;;;0.75;0.70;;;18.50;99.90;;;;;;5026220;28;19916;-77
2022/09/12 09:31:47;;;;;;;0.90;0.65;;;18.30;99.90;;;;;;5023310;28;20068;-75
2022/09/12 09:34:20;;;;;;;1.00;0.90;;;18.20;99.90;;;;;;5023382;28;20022;-76
2022/09/12 09:37:02;;;;;;;0.77;0.70;;;18.30;99.90;;;;;;5024418;28;20026;-76
2022/09/12 09:39:54;;;;;;;0.55;0.55;;;18.40;99.90;;;;;;5024088;28;20473;-75
2022/09/12 09:42:31;;;;;;;;;;;18.60;99.90;;;;;;5025912;28;20558;-76
2022/09/12 09:44:59;;;;;;;0.55;0.55;;;18.90;99.90;;;;;;5022809;28;19909;-76
2022/09/12 09:47:25;;;;;;;0.60;0.57;;;19.00;99.90;;;;;;5023864;28;20025;-78
2022/09/12 09:49:50;;;;;;;0.60;0.60;;;19.10;99.90;;;;;;5023824;28;20038;-78
2022/09/12 09:52:28;;;;;;;1.33;0.70;;;19.10;99.90;;;;;;5023900;28;20029;-77
2022/09/12 09:54:59;;;;;;;0.60;0.60;;;19.40;99.90;;;;;;5022991;28;20135;-79
2022/09/12 09:57:36;;;;;;;3.17;0.70;;;19.70;99.90;;;;;;5025101;28;20096;-81
2022/09/12 10:00:31;;;;;;;1.13;0.90;;;20.90;99.90;;;;;;5021397;28;20124;-77
2022/09/12 10:02:58;;;;;;;0.50;0.50;;;23.10;99.60;;;;;;5022396;28;20132;-75
2022/09/12 10:05:23;;;;;;;1.88;0.90;;;24.50;97.20;;;;;;5019877;28;20026;-76
2022/09/12 10:07:50;;;;;;;1.30;0.95;;;25.70;95.00;;;;;;5020719;28;20412;-80
2022/09/12 10:10:18;;;;;;;0.60;0.60;;;26.00;92.50;;;;;;5021123;28;20028;-72
2022/09/12 10:12:44;;;;;;;0.63;0.63;;;24.10;94.60;;;;;;5022825;28;20033;-72
2022/09/12 10:15:28;;;;;;;1.33;0.88;;;22.40;94.50;;;;;;5018448;28;20037;-76
2022/09/12 10:17:54;;;;;;;1.00;0.70;;;22.80;94.20;;;;;;5015199;28;20029;-76
2022/09/12 10:20:44;;;;;;;1.35;0.50;;;22.70;91.40;;;;;;5021429;28;20127;-76
2022/09/12 10:23:24;;;;;;;1.10;0.57;;;20.80;94.50;;;;;;5021336;28;20021;-76
2022/09/12 10:25:56;;;;;;;1.75;0.73;;;21.70;95.30;;;;;;5020403;28;20064;-76
2022/09/12 10:28:28;;;;;;;0.50;0.50;;;26.70;90.50;;;;;;5024111;28;20022;-76
2022/09/12 10:30:55;;;;;;;0.50;0.50;;;28.90;90.30;;;;;;5020775;28;20037;-75
2022/09/12 10:33:24;;;;;;;0.45;0.45;;;29.90;83.70;;;;;;5015996;28;20113;-77
2022/09/12 10:35:52;;;;;;;0.57;0.57;;;30.30;53.00;;;;;;5016066;28;20087;-76
2022/09/12 10:38:31;;;;;;;0.50;0.50;;;29.30;47.40;;;;;;5020982;28;20034;-76
2022/09/12 10:41:09;;;;;;;0.82;0.50;;;28.80;49.00;;;;;;5020962;28;20041;-75
2022/09/12 10:43:40;;;;;;;0.47;0.43;;;28.80;48.10;;;;;;5020049;28;20034;-72
2022/09/12 10:46:57;;;;;;;0.68;0.68;;;27.90;49.10;;;;;;5018887;28;20037;-73
2022/09/12 10:49:36;;;;;;;0.77;0.77;;;27.90;52.60;;;;;;5018084;28;20025;-74
2022/09/12 10:52:23;;;;;;;4.32;0.77;;;28.70;52.50;;;;;;5021056;28;20037;-73
2022/09/12 10:54:50;;;;;;;1.40;0.80;;;29.00;53.80;;;;;;5024136;28;20037;-74
2022/09/12 10:57:50;;;;;;;0.88;0.57;;;29.90;50.10;;;;;;5022527;28;20421;-74
2022/09/12 11:00:19;;;;;;;0.65;0.65;;;29.20;49.80;;;;;;5025414;28;20532;-73
2022/09/12 11:02:54;;;;;;;0.50;0.50;;;28.70;50.90;;;;;;5022942;28;20025;-73
2022/09/12 11:05:25;;;;;;;1.52;0.80;;;25.40;55.70;;;;;;5024368;28;20041;-73
2022/09/12 11:08:13;;;;;;;0.75;0.75;;;24.20;59.60;;;;;;5021007;28;20020;-73
2022/09/12 11:10:58;;;;;;;0.85;0.63;;;28.10;52.70;;;;;;5023080;28;20025;-73
2022/09/12 11:14:05;;;;;;;1.27;0.90;;;28.40;51.50;;;;;;5022396;28;20025;-73
2022/09/12 11:16:42;;;;;;;1.95;0.82;;;28.60;49.40;;;;;;5018042;28;20032;-73
2022/09/12 11:19:14;;;;;;;0.70;0.60;;;29.00;48.90;;;;;;5019093;28;20043;-73
2022/09/12 11:21:53;;;;;;;0.60;0.60;;;27.40;52.40;;;;;;5026678;28;20041;-73
2022/09/12 11:24:49;;;;;;;0.68;0.68;;;26.60;54.30;;;;;;5018932;28;20037;-73
2022/09/12 11:27:53;;;;;;;0.63;0.63;;;26.30;55.70;;;;;;5025937;28;20025;-73
2022/09/12 11:30:19;;;;;;;1.08;0.98;;;27.00;54.50;;;;;;5027290;28;20417;-74
2022/09/12 11:33:00;;;;;;;0.80;0.77;;;26.00;56.00;;;;;;5026241;28;20083;-73
2022/09/12 11:35:30;;;;;;;1.00;0.70;;;25.60;54.80;;;;;;5023636;28;20500;-74
2022/09/12 11:38:20;;;;;;;0.70;0.70;;;25.80;56.50;;;;;;5027267;28;20045;-73
2022/09/12 11:40:55;;;;;;;1.40;0.77;;;29.50;52.30;;;;;;5019665;28;20461;-74
2022/09/12 11:43:39;;;;;;;0.43;0.43;;;32.30;47.60;;;;;;5024979;28;20033;-74
2022/09/12 11:46:19;;;;;;;0.50;0.50;;;35.30;42.70;;;;;;5024359;28;20032;-72
2022/09/12 11:49:05;;;;;;;0.43;0.43;;;36.00;40.50;;;;;;5022774;28;20056;-74
2022/09/12 11:51:43;;;;;;;1.02;0.60;;;32.70;44.40;;;;;;5019601;28;20037;-73
2022/09/12 11:54:15;;;;;;;1.23;1.08;;;34.60;42.00;;;;;;5024495;28;20025;-74
2022/09/12 11:56:45;;;;;;;0.57;0.57;;;35.90;38.60;;;;;;5025894;28;20040;-74
2022/09/12 11:59:33;;;;;;;1.05;0.60;;;35.80;39.10;;;;;;5024450;28;20031;-73
2022/09/12 12:02:02;;;;;;;0.50;0.50;;;34.70;41.00;;;;;;5017472;28;20469;-73
2022/09/12 12:04:43;;;;;;;0.70;0.70;;;36.50;38.00;;;;;;5025111;28;20519;-74
2022/09/12 12:07:10;;;;;;;0.70;0.70;;;36.70;37.90;;;;;;5021927;28;20064;-74
2022/09/12 12:09:54;;;;;;;0.50;0.50;;;37.30;36.70;;;;;;5023226;28;20042;-74
2022/09/12 12:12:27;;;;;;;0.82;0.60;;;35.90;36.90;;;;;;5018237;28;20099;-74
2022/09/12 12:14:55;;;;;;;0.68;0.52;;;31.70;43.20;;;;;;5025877;28;20032;-75
2022/09/12 12:17:22;;;;;;;2.00;0.50;;;28.50;45.40;;;;;;5022092;28;20095;-76
2022/09/12 12:20:02;;;;;;;0.82;0.70;;;26.50;50.00;;;;;;5024517;28;20504;-80
2022/09/12 12:22:28;;;;;;;0.90;0.60;;;26.40;51.40;;;;;;5019327;28;20044;-86
2022/09/12 12:25:07;;;;;;;0.43;0.43;;;28.80;48.50;;;;;;5023577;28;20029;-71
2022/09/12 12:27:53;;;;;;;0.40;0.40;;;33.20;41.80;;;;;;5021281;28;20476;-74
2022/09/12 12:30:28;;;;;;;0.82;0.65;;;35.80;38.50;;;;;;5026052;28;20033;-78
2022/09/12 12:33:09;;;;;;;0.50;0.50;;;36.50;36.90;;;;;;5024145;28;20021;-86
2022/09/12 12:35:38;;;;;;;;;;;36.40;36.50;;;;;;5020961;28;20014;-73
2022/09/12 12:38:28;;;;;;;0.70;0.68;;;35.90;36.30;;;;;;5024852;28;20119;-76
2022/09/12 15:18:58;;;;;;;0.60;0.60;;;22.40;60.70;;;;;;5049560;28;20629;-77
2022/09/12 15:21:23;;;;;;;1.13;0.85;;;22.10;61.20;;;;;;5049559;28;20040;-76
2022/09/12 15:23:50;;;;;;;0.98;0.50;;;22.10;62.70;;;;;;5045688;28;20414;-76
2022/09/12 15:26:22;;;;;;;0.60;0.60;;;22.30;65.40;;;;;;5050246;28;20040;-76
2022/09/12 15:28:48;;;;;;;1.42;0.95;;;22.20;62.30;;;;;;5042012;28;20037;-76
2022/09/12 15:31:22;;;;;;;0.65;0.65;;;22.20;61.70;;;;;;5032972;28;20075;-76
2022/09/12 15:33:48;;;;;;;0.80;0.80;;;21.90;62.30;;;;;;5034235;28;20112;-76
2022/09/12 15:36:16;;;;;;;0.63;0.60;;;21.90;62.10;;;;;;5032402;28;20246;-75
2022/09/12 15:38:45;;;;;;;0.60;0.60;;;21.90;62.10;;;;;;5035336;28;20029;-76
2022/09/12 15:41:15;;;;;;;0.70;0.70;;;22.00;66.10;;;;;;5037391;28;20036;-76
2022/09/12 15:43:41;;;;;;;0.80;0.80;;;22.10;63.50;;;;;;5036526;28;20037;-76
2022/09/12 15:46:10;;;;;;;0.60;0.60;;;21.90;64.00;;;;;;5038635;28;20163;-76
2022/09/12 15:48:36;;;;;;;2.08;0.70;;;21.80;66.30;;;;;;5030692;28;20656;-76
2022/09/12 15:51:03;;;;;;;0.50;0.50;;;21.60;64.70;;;;;;5032638;28;20034;-76
2022/09/12 15:53:29;;;;;;;0.95;0.77;;;21.30;65.90;;;;;;5031281;28;20056;-76